Time;durP1;ratioP1;P1;durP2;ratioP2;P2;SDS_P1;SDS_P2;PMS_P1;PMS_P2;Temp;Humidity;BMP_temperature;BMP_pressure;BME280_temperature;BME280_humidity;BME280_pressure;Samples;Min_cycle;Max_cycle;Signal;HPM_P1;HPM_P2
2022/10/30 00:00:39;;;;;;;6.60;1.55;;;16.30;99.90;;;;;;5121974;27;20374;-48
2022/10/30 00:03:05;;;;;;;10.40;3.20;;;16.00;99.90;;;;;;5117475;27;20062;-49
2022/10/30 00:05:31;;;;;;;10.60;1.73;;;16.00;99.90;;;;;;5112011;28;20032;-50
2022/10/30 00:07:57;;;;;;;10.82;1.98;;;16.00;99.90;;;;;;5111664;28;20086;-47
2022/10/30 00:10:23;;;;;;;8.80;1.77;;;16.10;99.90;;;;;;5111730;28;20034;-52
2022/10/30 00:12:49;;;;;;;11.05;2.25;;;15.90;99.90;;;;;;5111718;28;20173;-48
2022/10/30 00:15:15;;;;;;;16.92;4.00;;;16.10;99.90;;;;;;5111460;28;20077;-50
2022/10/30 00:17:40;;;;;;;17.85;4.13;;;16.20;99.90;;;;;;5111600;28;20118;-48
2022/10/30 00:20:07;;;;;;;12.80;2.60;;;16.20;99.90;;;;;;5111512;28;20022;-55
2022/10/30 00:22:34;;;;;;;12.55;2.17;;;16.20;99.90;;;;;;5111185;28;20106;-48
2022/10/30 00:25:00;;;;;;;9.43;1.80;;;16.20;99.90;;;;;;5111368;28;20024;-47
2022/10/30 00:27:26;;;;;;;10.00;1.98;;;16.20;99.90;;;;;;5111388;28;20028;-46
2022/10/30 00:29:52;;;;;;;8.38;1.98;;;16.20;99.90;;;;;;5111989;28;20023;-51
2022/10/30 00:32:18;;;;;;;11.27;1.67;;;16.20;99.90;;;;;;5111192;28;20026;-47
2022/10/30 00:34:43;;;;;;;13.02;2.30;;;15.10;99.90;;;;;;5111509;28;20387;-49
2022/10/30 00:37:09;;;;;;;7.40;1.40;;;16.10;99.90;;;;;;5111281;28;20383;-50
2022/10/30 00:39:34;;;;;;;6.25;1.63;;;16.10;99.90;;;;;;5111277;28;20019;-47
2022/10/30 00:42:00;;;;;;;8.93;1.40;;;16.10;99.90;;;;;;5111603;28;20064;-48
2022/10/30 00:44:35;;;;;;;9.02;1.58;;;16.10;99.90;;;;;;5111256;28;20381;-49
2022/10/30 00:47:03;;;;;;;10.48;1.65;;;16.10;99.90;;;;;;5093204;28;20036;-53
2022/10/30 00:49:36;;;;;;;5.88;1.13;;;16.10;99.90;;;;;;5093656;28;20022;-47
2022/10/30 00:52:05;;;;;;;10.35;1.60;;;15.50;99.90;;;;;;5111306;28;20373;-53
2022/10/30 00:54:32;;;;;;;8.07;1.50;;;16.20;99.90;;;;;;5111021;28;20119;-46
2022/10/30 00:57:00;;;;;;;5.60;1.20;;;16.10;99.90;;;;;;5111304;28;20084;-46
2022/10/30 00:59:31;;;;;;;7.68;1.85;;;16.20;99.90;;;;;;5111180;28;20040;-49
2022/10/30 01:01:59;;;;;;;8.00;2.13;;;16.10;99.90;;;;;;5111366;28;20020;-49
2022/10/30 01:04:26;;;;;;;8.55;1.73;;;16.10;99.90;;;;;;5111313;28;20023;-47
2022/10/30 01:06:52;;;;;;;17.02;5.45;;;16.10;99.90;;;;;;5111041;28;20015;-48
2022/10/30 01:09:21;;;;;;;15.80;4.32;;;16.10;99.90;;;;;;5111043;28;20473;-52
2022/10/30 01:11:47;;;;;;;7.78;1.95;;;16.00;99.90;;;;;;5110865;28;20413;-47
2022/10/30 01:14:17;;;;;;;5.90;1.40;;;16.00;99.90;;;;;;5111194;28;20030;-49
2022/10/30 01:16:48;;;;;;;9.80;1.88;;;16.00;99.90;;;;;;5110860;28;20030;-46
2022/10/30 01:19:29;;;;;;;9.70;2.13;;;16.00;99.90;;;;;;5092805;28;20499;-49
2022/10/30 01:22:28;;;;;;;7.40;1.45;;;16.00;99.90;;;;;;5110477;28;20031;-48
2022/10/30 01:25:31;;;;;;;8.43;1.77;;;16.30;99.90;;;;;;5110720;28;20035;-50
2022/10/30 01:28:05;;;;;;;11.80;1.77;;;16.00;99.90;;;;;;5101027;28;20081;-46
2022/10/30 01:30:30;;;;;;;7.45;1.17;;;16.00;99.90;;;;;;5110795;28;20024;-46
2022/10/30 01:33:17;;;;;;;11.02;1.83;;;16.00;99.90;;;;;;5111065;28;20128;-51
2022/10/30 01:35:50;;;;;;;8.10;1.80;;;16.00;99.90;;;;;;5113327;28;20015;-46
2022/10/30 01:38:38;;;;;;;9.90;2.55;;;16.00;99.90;;;;;;5114854;28;20027;-46
2022/10/30 01:41:04;;;;;;;14.63;3.13;;;15.90;99.90;;;;;;5114634;28;20111;-54
2022/10/30 01:43:31;;;;;;;7.03;1.35;;;15.90;99.90;;;;;;5114594;28;20086;-48
2022/10/30 01:46:17;;;;;;;8.38;2.05;;;16.00;99.90;;;;;;5114428;28;20486;-48
2022/10/30 01:49:18;;;;;;;5.82;1.35;;;15.90;99.90;;;;;;5114598;28;20055;-51
2022/10/30 01:51:50;;;;;;;8.93;1.60;;;15.90;99.90;;;;;;5114187;28;20019;-47
2022/10/30 01:54:27;;;;;;;10.38;2.20;;;15.90;99.90;;;;;;5114117;28;20039;-51
2022/10/30 01:57:01;;;;;;;10.77;1.40;;;15.90;99.90;;;;;;5100826;28;20102;-47
2022/10/30 01:59:37;;;;;;;16.05;2.20;;;15.90;99.90;;;;;;5114395;28;20468;-49
2022/10/30 02:02:04;;;;;;;8.57;1.83;;;15.90;99.90;;;;;;5114643;28;20043;-54
2022/10/30 02:04:30;;;;;;;9.77;1.60;;;15.90;99.90;;;;;;5114531;28;20023;-53
2022/10/30 02:06:56;;;;;;;12.02;1.70;;;15.90;99.90;;;;;;5114289;28;20031;-47
2022/10/30 02:09:23;;;;;;;17.83;2.15;;;15.90;99.90;;;;;;5114123;28;20480;-46
2022/10/30 02:11:50;;;;;;;11.27;2.72;;;15.90;99.90;;;;;;5114182;28;20467;-50
2022/10/30 02:14:27;;;;;;;12.02;2.22;;;15.80;99.90;;;;;;5114353;28;20063;-51
2022/10/30 02:16:56;;;;;;;9.02;2.85;;;15.80;99.90;;;;;;5114294;28;20026;-46
2022/10/30 02:19:21;;;;;;;12.15;2.30;;;15.80;99.90;;;;;;5095890;28;20498;-51
2022/10/30 02:21:48;;;;;;;11.65;1.60;;;15.70;99.90;;;;;;5113763;28;20107;-54
2022/10/30 02:24:13;;;;;;;8.68;1.35;;;15.70;99.90;;;;;;5095743;28;20020;-50
2022/10/30 02:26:39;;;;;;;7.40;1.35;;;15.60;99.90;;;;;;5114022;28;20385;-46
2022/10/30 02:29:05;;;;;;;11.38;1.65;;;15.60;99.90;;;;;;5113923;28;20031;-51
2022/10/30 02:31:30;;;;;;;13.30;2.45;;;15.60;99.90;;;;;;5113968;28;20534;-47
2022/10/30 02:33:56;;;;;;;18.60;3.08;;;15.60;99.90;;;;;;5113733;28;20460;-49
2022/10/30 02:36:21;;;;;;;10.43;1.35;;;15.60;99.90;;;;;;5113905;28;20099;-48
2022/10/30 02:38:47;;;;;;;10.57;1.73;;;15.60;99.90;;;;;;5113849;28;20032;-45
2022/10/30 02:41:13;;;;;;;10.07;1.88;;;15.80;99.90;;;;;;5113575;28;20023;-51
2022/10/30 02:43:38;;;;;;;13.27;2.13;;;15.50;99.90;;;;;;5113970;28;20031;-58
2022/10/30 02:46:04;;;;;;;10.43;1.50;;;15.50;99.90;;;;;;5113464;28;20051;-51
2022/10/30 02:48:31;;;;;;;12.68;2.08;;;15.50;99.90;;;;;;5095419;28;20020;-51
2022/10/30 02:51:02;;;;;;;13.57;3.00;;;15.40;99.90;;;;;;5113673;28;20092;-55
2022/10/30 02:53:27;;;;;;;10.98;1.90;;;15.40;99.90;;;;;;5113261;28;20530;-52
2022/10/30 02:55:53;;;;;;;14.48;1.90;;;15.30;99.90;;;;;;5113315;28;20036;-56
2022/10/30 02:58:19;;;;;;;12.45;1.30;;;15.30;99.90;;;;;;5113256;28;20016;-51
2022/10/30 03:00:44;;;;;;;10.38;1.38;;;15.30;99.90;;;;;;5113522;28;20022;-54
2022/10/30 03:03:10;;;;;;;5.72;1.70;;;15.30;99.90;;;;;;5113137;28;20024;-55
2022/10/30 03:05:35;;;;;;;10.95;1.90;;;15.30;99.90;;;;;;5113276;28;20023;-59
2022/10/30 03:08:01;;;;;;;8.48;1.70;;;15.20;99.90;;;;;;5112880;28;20084;-46
2022/10/30 03:10:27;;;;;;;12.65;1.42;;;15.20;99.90;;;;;;5113359;28;20019;-53
2022/10/30 03:12:52;;;;;;;8.98;1.35;;;15.20;99.90;;;;;;5112649;28;20063;-55
2022/10/30 03:15:18;;;;;;;9.75;1.40;;;15.10;99.90;;;;;;5112216;28;20020;-55
2022/10/30 03:17:44;;;;;;;11.40;2.15;;;15.10;99.90;;;;;;5112392;28;20024;-59
2022/10/30 03:20:10;;;;;;;10.23;1.73;;;15.00;99.90;;;;;;5112628;28;20019;-51
2022/10/30 03:22:36;;;;;;;11.95;2.75;;;15.00;99.90;;;;;;5112723;28;20023;-57
2022/10/30 03:25:01;;;;;;;14.60;3.08;;;14.90;99.90;;;;;;5112703;28;20494;-53
2022/10/30 03:27:27;;;;;;;8.35;2.40;;;14.90;99.90;;;;;;5112838;28;20031;-53
2022/10/30 03:29:52;;;;;;;9.75;2.33;;;14.90;99.90;;;;;;5112763;28;20027;-46
2022/10/30 03:32:18;;;;;;;11.88;1.55;;;14.80;99.90;;;;;;5112373;28;20019;-51
2022/10/30 03:34:44;;;;;;;9.30;1.38;;;14.80;99.90;;;;;;5112678;28;20061;-57
2022/10/30 03:37:09;;;;;;;7.95;1.75;;;14.80;99.90;;;;;;5112420;28;20020;-57
2022/10/30 03:39:35;;;;;;;6.70;1.20;;;14.70;99.90;;;;;;5112334;28;20051;-52
2022/10/30 03:42:00;;;;;;;9.52;1.45;;;14.70;99.90;;;;;;5112704;28;20027;-48
2022/10/30 03:44:26;;;;;;;8.50;1.80;;;14.60;99.90;;;;;;5112295;28;20024;-50
2022/10/30 03:46:52;;;;;;;11.63;1.80;;;14.60;99.90;;;;;;5112473;28;20030;-52
2022/10/30 03:49:17;;;;;;;12.70;1.70;;;14.60;99.90;;;;;;5112442;28;20024;-54
2022/10/30 03:51:43;;;;;;;7.13;2.45;;;14.60;99.90;;;;;;5112064;28;20380;-52
2022/10/30 03:54:08;;;;;;;15.85;4.40;;;14.60;99.90;;;;;;5111983;28;20069;-47
2022/10/30 03:56:34;;;;;;;11.88;2.33;;;13.80;99.90;;;;;;5111700;28;20060;-52
2022/10/30 03:58:59;;;;;;;13.23;2.10;;;14.60;99.90;;;;;;5111209;28;20069;-55
2022/10/30 04:01:25;;;;;;;11.52;2.15;;;14.70;99.90;;;;;;5110066;28;20011;-52
2022/10/30 04:03:51;;;;;;;11.35;2.65;;;14.60;99.90;;;;;;5111387;28;20038;-49
2022/10/30 04:06:16;;;;;;;10.32;2.97;;;14.60;99.90;;;;;;5111833;28;20012;-46
2022/10/30 04:08:42;;;;;;;9.80;1.70;;;14.60;99.90;;;;;;5111584;28;20407;-50
2022/10/30 04:11:12;;;;;;;16.13;2.75;;;14.60;99.90;;;;;;5111910;27;20113;-53
2022/10/30 04:13:38;;;;;;;10.82;2.15;;;14.60;99.90;;;;;;5111791;28;20060;-55
2022/10/30 04:16:04;;;;;;;9.18;1.73;;;14.70;99.90;;;;;;5111742;28;20102;-50
2022/10/30 04:18:29;;;;;;;9.30;1.48;;;15.00;99.90;;;;;;5111555;28;20038;-56
2022/10/30 04:20:57;;;;;;;7.45;1.83;;;14.70;99.90;;;;;;5111629;28;20039;-49
2022/10/30 04:23:23;;;;;;;12.48;1.75;;;14.70;99.90;;;;;;5111215;28;20027;-47
2022/10/30 04:25:48;;;;;;;13.45;2.20;;;14.70;99.90;;;;;;5111735;28;20036;-52
2022/10/30 04:28:14;;;;;;;15.65;2.00;;;14.70;99.90;;;;;;5111331;28;20484;-46
2022/10/30 04:30:40;;;;;;;9.07;1.50;;;14.70;99.90;;;;;;5111539;28;20059;-51
2022/10/30 04:33:09;;;;;;;10.93;2.10;;;14.70;99.90;;;;;;5111328;28;20055;-49
2022/10/30 04:35:38;;;;;;;;;;;14.60;99.90;;;;;;5111584;28;20024;-53
2022/10/30 04:38:09;;;;;;;9.50;2.13;;;14.70;99.90;;;;;;5111299;28;19990;-46
2022/10/30 04:40:37;;;;;;;9.20;1.85;;;14.70;99.90;;;;;;5111461;28;20019;-50
2022/10/30 04:43:04;;;;;;;13.25;1.92;;;14.60;99.90;;;;;;5111374;28;20051;-50
2022/10/30 04:45:29;;;;;;;13.48;2.17;;;14.70;99.90;;;;;;5111308;28;20373;-46
2022/10/30 04:48:03;;;;;;;18.98;2.42;;;14.80;99.90;;;;;;5111396;28;20126;-50
2022/10/30 04:50:30;;;;;;;15.13;1.88;;;14.80;99.90;;;;;;5111109;28;20027;-49
2022/10/30 04:53:04;;;;;;;17.45;2.50;;;14.80;99.90;;;;;;5110899;28;20479;-46
2022/10/30 04:55:31;;;;;;;11.05;2.10;;;14.80;99.90;;;;;;5111071;28;20423;-48
2022/10/30 04:57:58;;;;;;;15.55;2.03;;;14.90;99.90;;;;;;5111112;28;20469;-49
2022/10/30 05:00:25;;;;;;;17.65;2.42;;;14.90;99.90;;;;;;5111149;28;20388;-49
2022/10/30 05:02:50;;;;;;;17.38;3.30;;;14.90;99.90;;;;;;5111070;28;20027;-47
2022/10/30 05:05:16;;;;;;;16.58;2.50;;;14.90;99.90;;;;;;5111144;28;20479;-52
2022/10/30 05:07:41;;;;;;;16.70;2.10;;;14.90;99.90;;;;;;5110860;28;20047;-50
2022/10/30 05:10:11;;;;;;;12.77;2.60;;;14.90;99.90;;;;;;5112724;28;20134;-49
2022/10/30 05:12:36;;;;;;;20.83;4.50;;;14.90;99.90;;;;;;5115149;28;20028;-46
2022/10/30 05:15:02;;;;;;;8.52;1.98;;;14.90;99.90;;;;;;5115392;28;20019;-50
2022/10/30 05:17:28;;;;;;;14.85;2.28;;;14.90;99.90;;;;;;5115739;28;20464;-51
2022/10/30 05:19:55;;;;;;;11.77;2.10;;;15.40;99.90;;;;;;5115002;28;20034;-46
2022/10/30 05:22:21;;;;;;;19.00;2.10;;;14.90;99.90;;;;;;5115105;28;20023;-47
2022/10/30 05:24:46;;;;;;;10.82;1.60;;;14.90;99.90;;;;;;5115029;28;20055;-47
2022/10/30 05:27:12;;;;;;;15.73;2.17;;;14.90;99.90;;;;;;5114945;28;20524;-45
2022/10/30 05:29:37;;;;;;;14.38;2.05;;;15.00;99.90;;;;;;5096349;28;20023;-45
2022/10/30 05:32:03;;;;;;;11.60;2.45;;;15.00;99.90;;;;;;5114781;28;20032;-46
2022/10/30 05:34:29;;;;;;;13.60;2.03;;;14.70;99.90;;;;;;5114938;28;20103;-46
2022/10/30 05:36:54;;;;;;;16.92;3.05;;;15.00;99.90;;;;;;5114781;28;20123;-46
2022/10/30 05:39:20;;;;;;;16.20;2.60;;;15.10;99.90;;;;;;5114914;28;20023;-49
2022/10/30 05:41:46;;;;;;;13.73;2.08;;;15.10;99.90;;;;;;5114734;28;20040;-54
2022/10/30 05:44:11;;;;;;;16.75;2.10;;;14.90;99.90;;;;;;5117248;27;20047;-49
2022/10/30 05:46:37;;;;;;;9.40;1.60;;;15.10;99.90;;;;;;5114355;28;20606;-51
2022/10/30 05:49:02;;;;;;;15.20;2.25;;;15.10;99.90;;;;;;5114615;28;20091;-49
2022/10/30 05:51:28;;;;;;;14.43;1.88;;;15.10;99.90;;;;;;5114493;28;20031;-51
2022/10/30 05:53:54;;;;;;;12.82;2.00;;;15.00;99.90;;;;;;5114450;28;20097;-46
2022/10/30 05:56:19;;;;;;;15.68;2.30;;;15.10;99.90;;;;;;5114539;28;20028;-48
2022/10/30 05:58:49;;;;;;;13.00;2.03;;;15.00;99.90;;;;;;5114364;28;20028;-51
2022/10/30 06:01:15;;;;;;;18.23;2.13;;;15.00;99.90;;;;;;5114442;28;20024;-47
2022/10/30 06:03:40;;;;;;;16.05;1.95;;;15.10;99.90;;;;;;5114336;28;20383;-49
2022/10/30 06:06:06;;;;;;;13.38;1.98;;;15.00;99.90;;;;;;5114240;28;20020;-46
2022/10/30 06:08:32;;;;;;;21.55;2.17;;;15.00;99.90;;;;;;5114120;28;20044;-49
2022/10/30 06:10:57;;;;;;;12.15;1.67;;;15.00;99.90;;;;;;5118084;27;20463;-53
2022/10/30 06:13:23;;;;;;;7.90;1.42;;;15.00;99.90;;;;;;5114211;28;20039;-52
2022/10/30 06:15:49;;;;;;;13.68;1.88;;;15.00;99.90;;;;;;5119948;27;20093;-53
2022/10/30 06:18:14;;;;;;;16.98;2.33;;;13.70;99.90;;;;;;5126182;27;20468;-49
2022/10/30 06:20:40;;;;;;;14.27;2.17;;;15.00;99.90;;;;;;5132333;27;20058;-52
2022/10/30 06:23:08;;;;;;;20.42;2.60;;;15.10;99.90;;;;;;5130716;27;20028;-49
2022/10/30 06:25:35;;;;;;;18.30;2.20;;;16.60;99.90;;;;;;5125472;27;20027;-53
2022/10/30 06:28:01;;;;;;;16.45;1.85;;;15.70;99.90;;;;;;5129080;27;20089;-49
2022/10/30 06:30:28;;;;;;;13.82;2.72;;;15.10;99.90;;;;;;5124437;27;20035;-53
2022/10/30 06:33:01;;;;;;;12.27;2.08;;;15.10;99.90;;;;;;5131714;27;20035;-52
2022/10/30 06:35:27;;;;;;;14.27;1.98;;;14.60;99.90;;;;;;5128853;27;20011;-49
2022/10/30 06:37:55;;;;;;;12.05;2.15;;;15.10;99.90;;;;;;5129754;27;20479;-46
2022/10/30 06:40:21;;;;;;;13.95;2.22;;;15.10;99.90;;;;;;5114421;27;20020;-50
2022/10/30 06:42:49;;;;;;;26.10;2.42;;;14.60;99.90;;;;;;5113299;28;20027;-49
2022/10/30 06:45:16;;;;;;;17.63;2.28;;;15.10;99.90;;;;;;5122429;27;20016;-53
2022/10/30 06:47:42;;;;;;;14.18;2.17;;;15.10;99.90;;;;;;5113439;28;20021;-51
2022/10/30 06:50:10;;;;;;;13.90;2.58;;;15.10;99.90;;;;;;5116679;27;20042;-50
2022/10/30 06:52:36;;;;;;;24.77;2.47;;;15.10;99.90;;;;;;5094708;28;20023;-49
2022/10/30 06:55:03;;;;;;;17.98;2.88;;;15.10;99.90;;;;;;5120659;27;20031;-49
2022/10/30 06:57:28;;;;;;;21.48;3.08;;;15.10;99.90;;;;;;5106636;28;20537;-50
2022/10/30 06:59:54;;;;;;;13.70;2.20;;;15.10;99.90;;;;;;5113228;28;20106;-48
2022/10/30 07:02:19;;;;;;;15.35;2.08;;;15.10;99.90;;;;;;5113171;28;20434;-54
2022/10/30 07:04:45;;;;;;;16.25;2.42;;;15.10;99.90;;;;;;5113026;28;20092;-46
2022/10/30 07:07:12;;;;;;;15.70;2.35;;;15.10;99.90;;;;;;5113165;28;20028;-53
2022/10/30 07:09:38;;;;;;;17.08;2.25;;;15.00;99.90;;;;;;5112906;28;20468;-52
2022/10/30 07:12:04;;;;;;;22.38;2.53;;;15.10;99.90;;;;;;5112939;28;20118;-51
2022/10/30 07:14:29;;;;;;;14.88;2.22;;;15.10;99.90;;;;;;5124019;27;20031;-51
2022/10/30 07:16:55;;;;;;;18.95;3.55;;;15.10;99.90;;;;;;5112766;28;20036;-46
2022/10/30 07:19:21;;;;;;;20.05;1.98;;;15.10;99.90;;;;;;5109481;27;20118;-47
2022/10/30 07:21:47;;;;;;;15.90;2.83;;;15.60;99.90;;;;;;5113110;27;20082;-53
2022/10/30 07:24:13;;;;;;;17.35;2.60;;;15.00;99.90;;;;;;5105091;28;20023;-47
2022/10/30 07:26:39;;;;;;;13.38;2.17;;;15.00;99.90;;;;;;5111431;28;20028;-47
2022/10/30 07:29:04;;;;;;;17.65;2.30;;;15.00;99.90;;;;;;5113486;27;20380;-47
2022/10/30 07:31:30;;;;;;;16.10;2.42;;;15.00;99.90;;;;;;5112332;28;20016;-51
2022/10/30 07:33:56;;;;;;;13.48;2.08;;;15.00;99.90;;;;;;5111790;28;20032;-47
2022/10/30 07:36:22;;;;;;;13.02;2.20;;;13.70;99.90;;;;;;5111895;28;20028;-51
2022/10/30 07:38:48;;;;;;;25.75;3.00;;;15.00;99.90;;;;;;5110480;28;20038;-47
2022/10/30 07:41:16;;;;;;;15.18;1.85;;;15.00;99.90;;;;;;5110330;28;20048;-50
2022/10/30 07:43:41;;;;;;;13.23;2.17;;;15.00;99.90;;;;;;5110187;28;20016;-50
2022/10/30 07:46:07;;;;;;;10.43;2.10;;;15.00;99.90;;;;;;5110432;28;20027;-49
2022/10/30 07:48:32;;;;;;;15.90;2.28;;;15.00;99.90;;;;;;5110197;28;20364;-56
2022/10/30 07:50:58;;;;;;;13.20;1.98;;;15.00;99.90;;;;;;5110445;28;20023;-51
2022/10/30 07:53:23;;;;;;;19.13;2.80;;;14.90;99.90;;;;;;5111547;28;20027;-51
2022/10/30 07:55:49;;;;;;;18.13;2.20;;;14.90;99.90;;;;;;5112199;28;20053;-52
2022/10/30 07:58:15;;;;;;;14.27;1.88;;;14.90;99.90;;;;;;5112165;28;20114;-47
2022/10/30 08:00:40;;;;;;;11.68;1.85;;;14.90;99.90;;;;;;5111829;28;20019;-47
2022/10/30 08:03:06;;;;;;;13.82;2.10;;;13.50;99.90;;;;;;5112152;28;20046;-46
2022/10/30 08:05:31;;;;;;;17.95;2.30;;;14.90;99.90;;;;;;5111779;28;20015;-46
2022/10/30 08:07:57;;;;;;;16.23;2.22;;;14.90;99.90;;;;;;5111869;28;20015;-46
2022/10/30 08:10:23;;;;;;;14.27;3.08;;;14.90;99.90;;;;;;5111955;28;20396;-50
2022/10/30 08:12:48;;;;;;;13.05;1.70;;;14.80;99.90;;;;;;5112229;28;20112;-53
2022/10/30 08:15:14;;;;;;;21.20;3.95;;;14.80;99.90;;;;;;5111707;28;20532;-53
2022/10/30 08:17:44;;;;;;;18.23;2.58;;;14.80;99.90;;;;;;5111865;28;20085;-48
2022/10/30 08:20:12;;;;;;;13.77;1.70;;;14.80;99.90;;;;;;5111856;28;20011;-49
2022/10/30 08:22:48;;;;;;;6.50;1.63;;;14.80;99.90;;;;;;5111604;28;20028;-48
2022/10/30 08:25:16;;;;;;;12.65;1.52;;;14.80;99.90;;;;;;5111761;28;20062;-48
2022/10/30 08:27:54;;;;;;;9.63;2.45;;;14.70;99.90;;;;;;5111687;28;20472;-49
2022/10/30 08:30:21;;;;;;;10.43;3.30;;;14.80;99.90;;;;;;5111585;28;20484;-49
2022/10/30 08:32:47;;;;;;;10.82;1.42;;;14.70;99.90;;;;;;5111701;28;20059;-54
2022/10/30 08:35:13;;;;;;;7.05;1.30;;;14.80;99.90;;;;;;5111515;28;20069;-51
2022/10/30 08:37:38;;;;;;;7.90;1.55;;;14.70;99.90;;;;;;5111543;28;20020;-52
2022/10/30 08:40:04;;;;;;;12.50;1.30;;;14.70;99.90;;;;;;5111405;28;20036;-47
2022/10/30 08:42:30;;;;;;;9.98;1.55;;;14.70;99.90;;;;;;5117626;27;20019;-55
2022/10/30 08:44:56;;;;;;;10.13;1.67;;;14.70;99.90;;;;;;5109518;27;20015;-50
2022/10/30 08:47:21;;;;;;;12.65;3.30;;;14.60;99.90;;;;;;5111459;28;20031;-54
2022/10/30 08:49:47;;;;;;;9.68;1.45;;;14.60;99.90;;;;;;5117741;27;20442;-54
2022/10/30 08:52:12;;;;;;;6.72;1.15;;;14.60;99.90;;;;;;5122488;27;20039;-54
2022/10/30 08:54:38;;;;;;;6.20;1.20;;;14.60;99.90;;;;;;5127125;27;20031;-55
2022/10/30 08:57:04;;;;;;;6.30;1.42;;;14.50;99.90;;;;;;5126802;27;20042;-53
2022/10/30 08:59:29;;;;;;;10.82;1.83;;;14.50;99.90;;;;;;5125117;28;20095;-53
2022/10/30 09:01:55;;;;;;;9.85;1.88;;;14.50;99.90;;;;;;5116900;28;20028;-59
2022/10/30 09:04:20;;;;;;;8.48;1.20;;;13.60;99.90;;;;;;5111230;28;20457;-53
2022/10/30 09:06:46;;;;;;;12.30;1.30;;;14.50;99.90;;;;;;5112889;28;20032;-54
2022/10/30 09:09:13;;;;;;;8.80;1.63;;;14.90;99.90;;;;;;5110782;28;20482;-50
2022/10/30 09:11:39;;;;;;;14.05;1.90;;;14.60;99.90;;;;;;5111242;28;20050;-52
2022/10/30 09:14:04;;;;;;;10.90;1.40;;;13.90;99.90;;;;;;5110360;28;20472;-51
2022/10/30 09:16:30;;;;;;;9.25;1.30;;;14.50;99.90;;;;;;5103838;28;20024;-51
2022/10/30 09:18:56;;;;;;;7.45;1.20;;;14.50;99.90;;;;;;5110224;28;20020;-51
2022/10/30 09:21:21;;;;;;;7.13;1.38;;;14.50;99.90;;;;;;5110001;28;20038;-50
2022/10/30 09:23:47;;;;;;;15.18;1.45;;;14.60;99.90;;;;;;5109857;28;21628;-47
2022/10/30 09:26:12;;;;;;;10.93;2.17;;;14.60;99.90;;;;;;5109572;28;20023;-58
2022/10/30 09:28:38;;;;;;;11.63;2.17;;;14.60;99.90;;;;;;5110298;28;20020;-54
2022/10/30 09:31:04;;;;;;;10.45;1.20;;;14.60;99.90;;;;;;5110576;28;20049;-53
2022/10/30 09:33:29;;;;;;;8.27;1.40;;;14.60;99.90;;;;;;5110520;28;20122;-51
2022/10/30 09:35:55;;;;;;;8.75;1.48;;;14.60;99.90;;;;;;5110880;28;20016;-54
2022/10/30 09:38:21;;;;;;;7.63;1.23;;;14.60;99.90;;;;;;5112384;28;20031;-54
2022/10/30 09:41:12;;;;;;;9.18;1.20;;;14.60;99.90;;;;;;5124636;28;20024;-50
2022/10/30 09:43:59;;;;;;;10.23;1.40;;;14.60;99.90;;;;;;5114672;27;20110;-54
2022/10/30 09:46:37;;;;;;;14.32;1.33;;;14.70;99.90;;;;;;5112789;28;20023;-52
2022/10/30 09:49:14;;;;;;;9.82;1.38;;;14.70;99.90;;;;;;5120154;28;20026;-55
2022/10/30 09:52:00;;;;;;;10.73;1.00;;;14.70;99.90;;;;;;5128047;27;20034;-50
2022/10/30 09:54:54;;;;;;;5.32;1.25;;;14.60;99.90;;;;;;5125233;28;20384;-51
2022/10/30 09:57:42;;;;;;;8.70;1.50;;;14.60;99.90;;;;;;5130645;27;20479;-55
2022/10/30 10:00:13;;;;;;;7.18;1.08;;;14.60;99.90;;;;;;5130561;27;20019;-50
2022/10/30 10:03:00;;;;;;;14.57;1.40;;;14.60;99.90;;;;;;5129763;27;20034;-54
2022/10/30 10:05:47;;;;;;;13.57;1.85;;;14.60;99.90;;;;;;5131551;27;20023;-48
2022/10/30 10:08:18;;;;;;;8.45;1.42;;;14.50;99.90;;;;;;5125869;27;20023;-51
2022/10/30 10:10:58;;;;;;;9.38;1.05;;;14.50;99.90;;;;;;5114804;27;20031;-53
2022/10/30 10:13:31;;;;;;;6.40;1.25;;;14.50;99.90;;;;;;5119597;27;20499;-52
2022/10/30 10:16:03;;;;;;;6.55;0.90;;;14.90;99.90;;;;;;5113886;28;20087;-53
2022/10/30 10:18:36;;;;;;;8.25;2.20;;;14.60;99.90;;;;;;5109101;27;20499;-52
2022/10/30 10:21:11;;;;;;;6.60;1.67;;;14.60;99.90;;;;;;5128024;27;20042;-53
2022/10/30 10:23:48;;;;;;;5.63;1.02;;;14.60;99.90;;;;;;5128929;27;20100;-50
2022/10/30 10:26:39;;;;;;;7.45;1.20;;;14.60;99.90;;;;;;5132679;27;20101;-49
2022/10/30 10:29:07;;;;;;;8.35;1.08;;;14.20;99.90;;;;;;5103664;28;20023;-49
2022/10/30 10:31:44;;;;;;;9.20;1.13;;;14.70;99.90;;;;;;5113845;28;20016;-51
2022/10/30 10:34:25;;;;;;;8.75;1.40;;;14.70;99.90;;;;;;5103460;28;20035;-45
2022/10/30 10:37:07;;;;;;;7.45;1.90;;;13.40;99.90;;;;;;5111924;28;20096;-45
2022/10/30 10:39:43;;;;;;;4.03;1.00;;;14.80;99.90;;;;;;5113230;28;20027;-45
2022/10/30 10:42:34;;;;;;;9.07;2.17;;;14.80;99.90;;;;;;5113506;28;20012;-48
2022/10/30 10:45:41;;;;;;;6.05;1.17;;;14.70;99.90;;;;;;5120392;27;20071;-45
2022/10/30 10:48:32;;;;;;;9.90;1.65;;;14.80;99.90;;;;;;5113013;28;20024;-46
2022/10/30 10:51:14;;;;;;;7.53;1.38;;;14.80;99.90;;;;;;5101906;28;20126;-46
2022/10/30 10:53:45;;;;;;;7.30;1.40;;;14.80;99.90;;;;;;5113333;28;20377;-50
2022/10/30 10:56:12;;;;;;;6.68;1.00;;;14.90;99.90;;;;;;5113298;27;20020;-46
2022/10/30 10:59:15;;;;;;;8.30;1.40;;;14.90;99.90;;;;;;5113403;28;20392;-48
2022/10/30 11:01:47;;;;;;;11.88;1.65;;;14.90;99.90;;;;;;5068840;28;20036;-47
2022/10/30 11:04:25;;;;;;;10.95;1.30;;;15.00;99.90;;;;;;5111222;27;20127;-46
2022/10/30 11:06:53;;;;;;;9.00;1.20;;;15.00;99.90;;;;;;5128968;27;20035;-54
2022/10/30 11:09:22;;;;;;;10.20;1.35;;;15.00;99.90;;;;;;5125943;27;20562;-49
2022/10/30 11:11:49;;;;;;;10.00;1.40;;;15.10;99.90;;;;;;5129230;27;20490;-46
2022/10/30 11:14:23;;;;;;;15.23;1.42;;;15.10;99.90;;;;;;5127205;27;20046;-47
2022/10/30 11:17:18;;;;;;;9.18;1.30;;;15.10;99.90;;;;;;5123756;27;20373;-47
2022/10/30 11:19:47;;;;;;;10.27;1.48;;;15.20;99.90;;;;;;5121908;27;20108;-47
2022/10/30 11:22:37;;;;;;;11.50;1.25;;;15.30;99.90;;;;;;5110695;27;20022;-53
2022/10/30 11:25:17;;;;;;;8.48;1.13;;;15.30;99.90;;;;;;5126010;27;20024;-50
2022/10/30 11:27:46;;;;;;;7.20;1.05;;;15.30;99.90;;;;;;5131301;27;20483;-51
2022/10/30 11:30:18;;;;;;;9.75;1.60;;;15.30;99.90;;;;;;5112964;27;20059;-53
2022/10/30 11:32:44;;;;;;;7.20;0.98;;;15.30;99.90;;;;;;5123323;27;20047;-46
2022/10/30 11:35:14;;;;;;;4.28;0.85;;;15.30;99.90;;;;;;5128230;27;20031;-54
2022/10/30 11:37:42;;;;;;;12.15;1.67;;;15.30;99.90;;;;;;5128790;27;20110;-54
2022/10/30 11:40:10;;;;;;;7.53;1.40;;;15.30;99.90;;;;;;5120413;27;20501;-51
2022/10/30 11:42:41;;;;;;;5.15;1.45;;;15.00;99.90;;;;;;5128924;27;20033;-51
2022/10/30 11:45:25;;;;;;;4.22;0.95;;;15.30;99.90;;;;;;5128357;27;20068;-46
2022/10/30 11:47:52;;;;;;;12.77;1.95;;;15.30;99.90;;;;;;5111167;27;20019;-46
2022/10/30 11:50:22;;;;;;;8.52;1.20;;;15.20;99.90;;;;;;5121355;27;20118;-46
2022/10/30 11:52:52;;;;;;;9.88;1.42;;;15.60;99.90;;;;;;5126387;27;20039;-50
2022/10/30 11:55:38;;;;;;;7.45;1.30;;;15.40;99.90;;;;;;5116116;27;20024;-47
2022/10/30 11:58:08;;;;;;;3.88;0.90;;;15.40;99.90;;;;;;5118996;27;20039;-47
2022/10/30 12:00:36;;;;;;;6.25;1.50;;;15.50;99.90;;;;;;5099297;27;20447;-51
2022/10/30 12:03:02;;;;;;;7.85;1.00;;;15.40;99.90;;;;;;5130861;27;20031;-50
2022/10/30 12:05:39;;;;;;;6.78;0.98;;;15.40;99.90;;;;;;5108281;27;20487;-47
2022/10/30 12:08:07;;;;;;;9.95;1.15;;;15.50;99.90;;;;;;5114517;27;20027;-50
2022/10/30 12:10:42;;;;;;;6.82;1.00;;;15.50;99.90;;;;;;5116823;27;20085;-49
2022/10/30 12:13:19;;;;;;;11.15;1.42;;;15.60;99.90;;;;;;5120423;27;20429;-48
2022/10/30 12:15:49;;;;;;;8.48;2.17;;;15.60;99.90;;;;;;5123515;27;20088;-50
2022/10/30 12:18:23;;;;;;;11.88;1.45;;;15.70;99.90;;;;;;5117913;27;20024;-46
2022/10/30 12:20:53;;;;;;;8.10;0.88;;;15.70;99.90;;;;;;5121956;27;20464;-47
2022/10/30 12:23:24;;;;;;;9.35;1.52;;;15.90;99.90;;;;;;5110645;28;20028;-49
2022/10/30 12:25:56;;;;;;;7.38;1.00;;;16.00;99.90;;;;;;5109328;28;20024;-52
2022/10/30 12:28:27;;;;;;;2.90;0.77;;;15.90;99.90;;;;;;5109175;28;20019;-48
2022/10/30 12:31:02;;;;;;;9.52;0.90;;;17.30;99.90;;;;;;5110759;28;20032;-49
2022/10/30 12:33:49;;;;;;;11.25;1.58;;;15.70;99.90;;;;;;5109816;28;20637;-47
2022/10/30 12:36:43;;;;;;;7.53;1.15;;;15.80;99.90;;;;;;5110482;28;20091;-46
2022/10/30 12:39:25;;;;;;;9.52;1.30;;;17.20;99.90;;;;;;5098269;28;20080;-50
2022/10/30 12:42:03;;;;;;;7.60;1.23;;;15.60;99.90;;;;;;5109381;28;20095;-46
2022/10/30 12:44:43;;;;;;;8.23;1.02;;;15.70;99.90;;;;;;5109252;28;20023;-48
2022/10/30 12:47:28;;;;;;;8.00;1.23;;;15.70;99.90;;;;;;5109246;28;20027;-49
2022/10/30 12:49:59;;;;;;;7.97;1.38;;;15.70;99.90;;;;;;5110400;28;20019;-51
2022/10/30 12:52:34;;;;;;;7.30;0.95;;;15.70;99.90;;;;;;5110934;28;20110;-49